AMS weather

Amsterdam Airport Schiphol
Amsterdam, Noord-Holland, Netherlands

Public forecast

Using degrees Celsius for public forecast. Weather courtesy of forecast.io.

METAR (pilot weather report)

Retrieved 2018/12/19 14:25 UTC (27 minutes ago):

EHAM 191425Z 19013KT 9999 FEW018 09/07 Q1008 NOSIG

TAF (pilot weather forecast)

Retrieved 2018/12/19 12:27 UTC (2 hours ago):

TAF TAF EHAM 191100Z 1912/2018 19012KT 9999 BKN016 PROB30 TEMPO 1914/1918 21015G25KT 7000 -SHRA SCT018CB BKN022 PROB40 2001/2012 BKN010 BECMG 2009/2012 22014KT TEMPO 2010/2018 22015G25KT 6000 SHRA SCT015CB BKN018